sensor_id;sensor_type;location;lat;lon;timestamp;P1;durP1;ratioP1;P2;durP2;ratioP2
11960;SDS011;6040;49.358;11.140;2023-05-17T00:00:52;4.90;;;2.03;;
11960;SDS011;6040;49.358;11.140;2023-05-17T00:03:19;3.47;;;1.30;;
11960;SDS011;6040;49.358;11.140;2023-05-17T00:05:46;4.63;;;1.50;;
11960;SDS011;6040;49.358;11.140;2023-05-17T00:08:15;3.20;;;1.40;;
11960;SDS011;6040;49.358;11.140;2023-05-17T00:10:42;3.10;;;1.70;;
11960;SDS011;6040;49.358;11.140;2023-05-17T00:13:09;3.97;;;1.83;;
11960;SDS011;6040;49.358;11.140;2023-05-17T00:15:35;3.00;;;1.40;;
11960;SDS011;6040;49.358;11.140;2023-05-17T00:18:02;1.90;;;1.40;;
11960;SDS011;6040;49.358;11.140;2023-05-17T00:20:29;2.87;;;1.47;;
11960;SDS011;6040;49.358;11.140;2023-05-17T00:22:56;2.37;;;1.53;;
11960;SDS011;6040;49.358;11.140;2023-05-17T00:25:24;3.33;;;1.43;;
11960;SDS011;6040;49.358;11.140;2023-05-17T00:27:51;2.13;;;1.63;;
11960;SDS011;6040;49.358;11.140;2023-05-17T00:30:18;3.53;;;1.30;;
11960;SDS011;6040;49.358;11.140;2023-05-17T00:32:45;4.70;;;1.57;;
11960;SDS011;6040;49.358;11.140;2023-05-17T00:35:12;5.00;;;1.70;;
11960;SDS011;6040;49.358;11.140;2023-05-17T00:37:39;3.10;;;1.37;;
11960;SDS011;6040;49.358;11.140;2023-05-17T00:40:07;4.40;;;1.50;;
11960;SDS011;6040;49.358;11.140;2023-05-17T00:42:37;3.97;;;1.60;;
11960;SDS011;6040;49.358;11.140;2023-05-17T00:45:04;3.20;;;1.40;;
11960;SDS011;6040;49.358;11.140;2023-05-17T00:47:32;4.43;;;1.93;;
11960;SDS011;6040;49.358;11.140;2023-05-17T00:49:58;3.60;;;1.80;;
11960;SDS011;6040;49.358;11.140;2023-05-17T00:52:25;3.07;;;1.50;;
11960;SDS011;6040;49.358;11.140;2023-05-17T00:54:52;3.57;;;1.40;;
11960;SDS011;6040;49.358;11.140;2023-05-17T00:57:19;2.57;;;1.40;;
11960;SDS011;6040;49.358;11.140;2023-05-17T00:59:47;6.53;;;1.80;;
11960;SDS011;6040;49.358;11.140;2023-05-17T01:02:16;4.80;;;1.67;;
11960;SDS011;6040;49.358;11.140;2023-05-17T01:04:43;2.60;;;1.50;;
11960;SDS011;6040;49.358;11.140;2023-05-17T01:07:10;2.53;;;1.40;;
11960;SDS011;6040;49.358;11.140;2023-05-17T01:09:36;5.27;;;1.87;;
11960;SDS011;6040;49.358;11.140;2023-05-17T01:12:05;4.67;;;1.53;;
11960;SDS011;6040;49.358;11.140;2023-05-17T01:14:43;3.20;;;1.47;;
11960;SDS011;6040;49.358;11.140;2023-05-17T01:17:19;2.13;;;1.23;;
11960;SDS011;6040;49.358;11.140;2023-05-17T01:19:55;3.30;;;1.40;;
11960;SDS011;6040;49.358;11.140;2023-05-17T01:22:36;2.53;;;1.50;;
11960;SDS011;6040;49.358;11.140;2023-05-17T01:25:14;3.90;;;1.40;;
11960;SDS011;6040;49.358;11.140;2023-05-17T01:27:57;2.83;;;1.13;;
11960;SDS011;6040;49.358;11.140;2023-05-17T01:30:26;2.20;;;1.60;;
11960;SDS011;6040;49.358;11.140;2023-05-17T01:32:55;4.90;;;1.60;;
11960;SDS011;6040;49.358;11.140;2023-05-17T01:35:24;3.63;;;1.20;;
11960;SDS011;6040;49.358;11.140;2023-05-17T01:37:51;2.27;;;1.40;;
11960;SDS011;6040;49.358;11.140;2023-05-17T01:40:18;3.77;;;1.67;;
11960;SDS011;6040;49.358;11.140;2023-05-17T01:42:47;4.37;;;1.40;;
11960;SDS011;6040;49.358;11.140;2023-05-17T01:45:21;3.43;;;1.37;;
11960;SDS011;6040;49.358;11.140;2023-05-17T01:47:52;2.37;;;1.50;;
11960;SDS011;6040;49.358;11.140;2023-05-17T01:50:26;2.17;;;1.33;;
11960;SDS011;6040;49.358;11.140;2023-05-17T01:52:58;3.30;;;1.50;;
11960;SDS011;6040;49.358;11.140;2023-05-17T01:55:33;3.47;;;1.47;;
11960;SDS011;6040;49.358;11.140;2023-05-17T01:58:05;2.07;;;1.30;;
11960;SDS011;6040;49.358;11.140;2023-05-17T02:00:35;3.60;;;1.50;;
11960;SDS011;6040;49.358;11.140;2023-05-17T02:03:03;5.07;;;1.43;;
11960;SDS011;6040;49.358;11.140;2023-05-17T02:05:30;3.63;;;1.50;;
11960;SDS011;6040;49.358;11.140;2023-05-17T02:07:57;4.63;;;1.30;;
11960;SDS011;6040;49.358;11.140;2023-05-17T02:10:23;3.20;;;1.43;;
11960;SDS011;6040;49.358;11.140;2023-05-17T02:12:50;2.57;;;1.20;;
11960;SDS011;6040;49.358;11.140;2023-05-17T02:15:17;3.43;;;1.50;;
11960;SDS011;6040;49.358;11.140;2023-05-17T02:17:45;3.50;;;1.50;;
11960;SDS011;6040;49.358;11.140;2023-05-17T02:20:12;3.13;;;1.10;;
11960;SDS011;6040;49.358;11.140;2023-05-17T02:22:39;1.30;;;1.20;;
11960;SDS011;6040;49.358;11.140;2023-05-17T02:25:06;3.47;;;1.50;;
11960;SDS011;6040;49.358;11.140;2023-05-17T02:27:33;3.80;;;1.70;;
11960;SDS011;6040;49.358;11.140;2023-05-17T02:30:00;2.27;;;1.40;;
11960;SDS011;6040;49.358;11.140;2023-05-17T02:32:28;1.83;;;1.30;;
11960;SDS011;6040;49.358;11.140;2023-05-17T02:34:56;3.57;;;1.40;;
11960;SDS011;6040;49.358;11.140;2023-05-17T02:37:23;1.43;;;1.23;;
11960;SDS011;6040;49.358;11.140;2023-05-17T02:39:50;3.53;;;1.40;;
11960;SDS011;6040;49.358;11.140;2023-05-17T02:42:17;3.93;;;1.40;;
11960;SDS011;6040;49.358;11.140;2023-05-17T02:44:44;3.70;;;1.40;;
11960;SDS011;6040;49.358;11.140;2023-05-17T02:47:12;4.90;;;1.30;;
11960;SDS011;6040;49.358;11.140;2023-05-17T02:49:39;3.77;;;1.70;;
11960;SDS011;6040;49.358;11.140;2023-05-17T02:52:07;4.37;;;1.30;;
11960;SDS011;6040;49.358;11.140;2023-05-17T02:54:35;4.17;;;1.60;;
11960;SDS011;6040;49.358;11.140;2023-05-17T02:57:01;2.47;;;1.33;;
11960;SDS011;6040;49.358;11.140;2023-05-17T02:59:28;1.40;;;1.20;;
11960;SDS011;6040;49.358;11.140;2023-05-17T03:01:55;4.37;;;1.77;;
11960;SDS011;6040;49.358;11.140;2023-05-17T03:04:22;3.90;;;1.60;;
11960;SDS011;6040;49.358;11.140;2023-05-17T03:06:49;3.83;;;1.47;;
11960;SDS011;6040;49.358;11.140;2023-05-17T03:09:17;2.90;;;1.37;;
11960;SDS011;6040;49.358;11.140;2023-05-17T03:11:44;5.90;;;1.73;;
11960;SDS011;6040;49.358;11.140;2023-05-17T03:14:11;2.70;;;1.60;;
11960;SDS011;6040;49.358;11.140;2023-05-17T03:16:38;2.13;;;1.60;;
11960;SDS011;6040;49.358;11.140;2023-05-17T03:19:05;1.83;;;1.47;;
11960;SDS011;6040;49.358;11.140;2023-05-17T03:21:32;4.37;;;1.80;;
11960;SDS011;6040;49.358;11.140;2023-05-17T03:23:58;3.07;;;1.57;;
11960;SDS011;6040;49.358;11.140;2023-05-17T03:26:27;2.87;;;1.47;;
11960;SDS011;6040;49.358;11.140;2023-05-17T03:28:53;1.97;;;1.40;;
11960;SDS011;6040;49.358;11.140;2023-05-17T03:31:20;2.50;;;1.60;;
11960;SDS011;6040;49.358;11.140;2023-05-17T03:33:47;6.90;;;1.63;;
11960;SDS011;6040;49.358;11.140;2023-05-17T03:36:14;4.03;;;1.47;;
11960;SDS011;6040;49.358;11.140;2023-05-17T03:38:41;3.37;;;1.60;;
11960;SDS011;6040;49.358;11.140;2023-05-17T03:41:07;4.03;;;1.70;;
11960;SDS011;6040;49.358;11.140;2023-05-17T03:43:36;3.13;;;1.70;;
11960;SDS011;6040;49.358;11.140;2023-05-17T03:46:02;5.10;;;1.70;;
11960;SDS011;6040;49.358;11.140;2023-05-17T03:48:29;3.23;;;1.70;;
11960;SDS011;6040;49.358;11.140;2023-05-17T03:50:56;5.87;;;1.87;;
11960;SDS011;6040;49.358;11.140;2023-05-17T03:53:24;2.97;;;1.40;;
11960;SDS011;6040;49.358;11.140;2023-05-17T03:55:51;3.23;;;1.63;;
11960;SDS011;6040;49.358;11.140;2023-05-17T03:58:18;3.80;;;1.60;;
11960;SDS011;6040;49.358;11.140;2023-05-17T04:00:46;2.07;;;1.40;;
11960;SDS011;6040;49.358;11.140;2023-05-17T04:03:13;2.20;;;1.70;;
11960;SDS011;6040;49.358;11.140;2023-05-17T04:05:40;4.03;;;1.40;;
11960;SDS011;6040;49.358;11.140;2023-05-17T04:08:07;3.27;;;1.50;;
11960;SDS011;6040;49.358;11.140;2023-05-17T04:10:33;6.13;;;1.50;;
11960;SDS011;6040;49.358;11.140;2023-05-17T04:13:00;5.87;;;1.50;;
11960;SDS011;6040;49.358;11.140;2023-05-17T04:15:27;4.90;;;1.60;;
11960;SDS011;6040;49.358;11.140;2023-05-17T04:17:56;2.80;;;1.63;;
11960;SDS011;6040;49.358;11.140;2023-05-17T04:20:23;2.50;;;1.60;;
11960;SDS011;6040;49.358;11.140;2023-05-17T04:22:49;2.53;;;1.80;;
11960;SDS011;6040;49.358;11.140;2023-05-17T04:25:16;4.90;;;2.00;;
11960;SDS011;6040;49.358;11.140;2023-05-17T04:27:43;2.80;;;1.43;;
11960;SDS011;6040;49.358;11.140;2023-05-17T04:30:11;5.17;;;1.60;;
11960;SDS011;6040;49.358;11.140;2023-05-17T04:32:38;2.83;;;1.67;;
11960;SDS011;6040;49.358;11.140;2023-05-17T04:35:08;3.70;;;1.83;;
11960;SDS011;6040;49.358;11.140;2023-05-17T04:37:35;4.77;;;1.67;;
11960;SDS011;6040;49.358;11.140;2023-05-17T04:40:04;3.27;;;1.40;;
11960;SDS011;6040;49.358;11.140;2023-05-17T04:42:33;6.73;;;1.57;;
11960;SDS011;6040;49.358;11.140;2023-05-17T04:45:01;7.73;;;1.93;;
11960;SDS011;6040;49.358;11.140;2023-05-17T04:47:27;4.03;;;1.70;;
11960;SDS011;6040;49.358;11.140;2023-05-17T04:49:54;3.30;;;1.60;;
11960;SDS011;6040;49.358;11.140;2023-05-17T04:52:30;5.00;;;1.80;;
11960;SDS011;6040;49.358;11.140;2023-05-17T04:54:57;3.77;;;1.70;;
11960;SDS011;6040;49.358;11.140;2023-05-17T04:57:23;6.57;;;1.80;;
11960;SDS011;6040;49.358;11.140;2023-05-17T04:59:50;2.87;;;1.63;;
11960;SDS011;6040;49.358;11.140;2023-05-17T05:02:17;4.67;;;1.90;;
11960;SDS011;6040;49.358;11.140;2023-05-17T05:04:44;2.73;;;1.50;;
11960;SDS011;6040;49.358;11.140;2023-05-17T05:07:11;4.23;;;1.87;;
11960;SDS011;6040;49.358;11.140;2023-05-17T05:09:39;2.03;;;1.70;;
11960;SDS011;6040;49.358;11.140;2023-05-17T05:12:06;5.53;;;1.73;;
11960;SDS011;6040;49.358;11.140;2023-05-17T05:14:33;3.00;;;1.63;;
11960;SDS011;6040;49.358;11.140;2023-05-17T05:17:00;4.20;;;1.83;;
11960;SDS011;6040;49.358;11.140;2023-05-17T05:19:27;1.97;;;1.70;;
11960;SDS011;6040;49.358;11.140;2023-05-17T05:21:54;3.97;;;1.63;;
11960;SDS011;6040;49.358;11.140;2023-05-17T05:24:21;3.73;;;1.73;;
11960;SDS011;6040;49.358;11.140;2023-05-17T05:26:49;4.73;;;1.90;;
11960;SDS011;6040;49.358;11.140;2023-05-17T05:29:16;5.67;;;1.83;;
11960;SDS011;6040;49.358;11.140;2023-05-17T05:31:43;3.07;;;2.20;;
11960;SDS011;6040;49.358;11.140;2023-05-17T05:34:10;2.93;;;1.83;;
11960;SDS011;6040;49.358;11.140;2023-05-17T05:36:37;5.60;;;2.20;;
11960;SDS011;6040;49.358;11.140;2023-05-17T05:39:04;5.23;;;2.10;;
11960;SDS011;6040;49.358;11.140;2023-05-17T05:41:32;6.20;;;2.03;;
11960;SDS011;6040;49.358;11.140;2023-05-17T05:44:00;8.27;;;2.07;;
11960;SDS011;6040;49.358;11.140;2023-05-17T05:46:27;5.23;;;2.53;;
11960;SDS011;6040;49.358;11.140;2023-05-17T05:48:54;2.93;;;1.70;;
11960;SDS011;6040;49.358;11.140;2023-05-17T05:51:21;4.87;;;2.07;;
11960;SDS011;6040;49.358;11.140;2023-05-17T05:53:48;4.50;;;2.00;;
11960;SDS011;6040;49.358;11.140;2023-05-17T05:56:15;2.57;;;1.53;;
11960;SDS011;6040;49.358;11.140;2023-05-17T05:58:41;7.13;;;1.97;;
11960;SDS011;6040;49.358;11.140;2023-05-17T06:01:10;3.57;;;2.13;;
11960;SDS011;6040;49.358;11.140;2023-05-17T06:03:37;3.83;;;2.30;;
11960;SDS011;6040;49.358;11.140;2023-05-17T06:06:04;5.40;;;2.17;;
11960;SDS011;6040;49.358;11.140;2023-05-17T06:08:31;5.23;;;2.00;;
11960;SDS011;6040;49.358;11.140;2023-05-17T06:10:58;3.83;;;1.93;;
11960;SDS011;6040;49.358;11.140;2023-05-17T06:13:24;2.87;;;1.90;;
11960;SDS011;6040;49.358;11.140;2023-05-17T06:15:51;5.13;;;2.00;;
11960;SDS011;6040;49.358;11.140;2023-05-17T06:18:19;5.50;;;2.03;;
11960;SDS011;6040;49.358;11.140;2023-05-17T06:20:46;4.00;;;1.93;;
11960;SDS011;6040;49.358;11.140;2023-05-17T06:23:13;7.33;;;2.17;;
11960;SDS011;6040;49.358;11.140;2023-05-17T06:25:40;6.00;;;2.53;;
11960;SDS011;6040;49.358;11.140;2023-05-17T06:28:07;3.77;;;1.83;;
11960;SDS011;6040;49.358;11.140;2023-05-17T06:30:34;4.53;;;2.00;;
11960;SDS011;6040;49.358;11.140;2023-05-17T06:33:01;7.07;;;2.30;;
11960;SDS011;6040;49.358;11.140;2023-05-17T06:35:30;4.37;;;1.97;;
11960;SDS011;6040;49.358;11.140;2023-05-17T06:37:56;6.23;;;2.20;;
11960;SDS011;6040;49.358;11.140;2023-05-17T06:40:23;7.40;;;2.37;;
11960;SDS011;6040;49.358;11.140;2023-05-17T06:42:50;7.10;;;2.53;;
11960;SDS011;6040;49.358;11.140;2023-05-17T06:45:17;4.43;;;2.03;;
11960;SDS011;6040;49.358;11.140;2023-05-17T06:47:44;5.20;;;2.20;;
11960;SDS011;6040;49.358;11.140;2023-05-17T06:50:10;5.37;;;2.23;;
11960;SDS011;6040;49.358;11.140;2023-05-17T06:52:39;6.20;;;2.17;;
11960;SDS011;6040;49.358;11.140;2023-05-17T06:55:06;9.33;;;2.50;;
11960;SDS011;6040;49.358;11.140;2023-05-17T06:57:33;5.93;;;2.23;;
11960;SDS011;6040;49.358;11.140;2023-05-17T07:00:00;4.37;;;2.40;;
11960;SDS011;6040;49.358;11.140;2023-05-17T07:02:27;4.27;;;2.40;;
11960;SDS011;6040;49.358;11.140;2023-05-17T07:04:55;6.83;;;2.20;;
11960;SDS011;6040;49.358;11.140;2023-05-17T07:07:21;9.73;;;2.47;;
11960;SDS011;6040;49.358;11.140;2023-05-17T07:09:50;5.37;;;2.60;;
11960;SDS011;6040;49.358;11.140;2023-05-17T07:12:16;5.53;;;2.20;;
11960;SDS011;6040;49.358;11.140;2023-05-17T07:14:43;5.70;;;2.70;;
11960;SDS011;6040;49.358;11.140;2023-05-17T07:17:10;4.70;;;2.10;;
11960;SDS011;6040;49.358;11.140;2023-05-17T07:19:37;8.10;;;2.40;;
11960;SDS011;6040;49.358;11.140;2023-05-17T07:22:04;6.70;;;2.60;;
11960;SDS011;6040;49.358;11.140;2023-05-17T07:24:31;6.60;;;2.23;;
11960;SDS011;6040;49.358;11.140;2023-05-17T07:27:00;4.40;;;2.23;;
11960;SDS011;6040;49.358;11.140;2023-05-17T07:29:27;6.87;;;2.37;;
11960;SDS011;6040;49.358;11.140;2023-05-17T07:31:54;5.73;;;2.33;;
11960;SDS011;6040;49.358;11.140;2023-05-17T07:34:21;7.13;;;2.53;;
11960;SDS011;6040;49.358;11.140;2023-05-17T07:36:48;7.97;;;2.50;;
11960;SDS011;6040;49.358;11.140;2023-05-17T07:39:14;5.30;;;2.47;;
11960;SDS011;6040;49.358;11.140;2023-05-17T07:41:41;6.47;;;2.60;;
11960;SDS011;6040;49.358;11.140;2023-05-17T07:44:09;7.43;;;2.83;;
11960;SDS011;6040;49.358;11.140;2023-05-17T07:46:36;5.60;;;2.20;;
11960;SDS011;6040;49.358;11.140;2023-05-17T07:49:03;5.50;;;2.40;;
11960;SDS011;6040;49.358;11.140;2023-05-17T07:51:30;4.93;;;2.20;;
11960;SDS011;6040;49.358;11.140;2023-05-17T07:53:57;5.70;;;2.50;;
11960;SDS011;6040;49.358;11.140;2023-05-17T07:56:23;6.33;;;2.70;;
11960;SDS011;6040;49.358;11.140;2023-05-17T07:58:50;3.70;;;2.50;;
11960;SDS011;6040;49.358;11.140;2023-05-17T08:01:18;5.43;;;2.50;;
11960;SDS011;6040;49.358;11.140;2023-05-17T08:03:47;4.63;;;2.80;;
11960;SDS011;6040;49.358;11.140;2023-05-17T08:06:13;5.17;;;2.80;;
11960;SDS011;6040;49.358;11.140;2023-05-17T08:08:40;5.93;;;2.73;;
11960;SDS011;6040;49.358;11.140;2023-05-17T08:11:08;6.20;;;2.70;;
11960;SDS011;6040;49.358;11.140;2023-05-17T08:13:36;3.83;;;2.40;;
11960;SDS011;6040;49.358;11.140;2023-05-17T08:16:03;6.13;;;2.90;;
11960;SDS011;6040;49.358;11.140;2023-05-17T08:18:33;7.07;;;3.00;;
11960;SDS011;6040;49.358;11.140;2023-05-17T08:21:01;7.40;;;2.80;;
11960;SDS011;6040;49.358;11.140;2023-05-17T08:23:28;5.50;;;2.70;;
11960;SDS011;6040;49.358;11.140;2023-05-17T08:25:55;6.10;;;2.93;;
11960;SDS011;6040;49.358;11.140;2023-05-17T08:28:22;6.17;;;2.67;;
11960;SDS011;6040;49.358;11.140;2023-05-17T08:30:49;8.43;;;2.90;;
11960;SDS011;6040;49.358;11.140;2023-05-17T08:33:16;5.10;;;2.57;;
11960;SDS011;6040;49.358;11.140;2023-05-17T08:35:46;7.03;;;2.60;;
11960;SDS011;6040;49.358;11.140;2023-05-17T08:38:13;3.93;;;2.47;;
11960;SDS011;6040;49.358;11.140;2023-05-17T08:40:39;6.53;;;2.50;;
11960;SDS011;6040;49.358;11.140;2023-05-17T08:43:06;4.77;;;2.63;;
11960;SDS011;6040;49.358;11.140;2023-05-17T08:45:36;5.47;;;2.70;;
11960;SDS011;6040;49.358;11.140;2023-05-17T08:48:04;3.97;;;2.50;;
11960;SDS011;6040;49.358;11.140;2023-05-17T08:50:32;5.03;;;2.60;;
11960;SDS011;6040;49.358;11.140;2023-05-17T08:53:01;11.23;;;3.13;;
11960;SDS011;6040;49.358;11.140;2023-05-17T08:55:28;5.83;;;2.83;;
11960;SDS011;6040;49.358;11.140;2023-05-17T08:57:58;4.97;;;3.30;;
11960;SDS011;6040;49.358;11.140;2023-05-17T09:00:25;5.83;;;2.70;;
11960;SDS011;6040;49.358;11.140;2023-05-17T09:02:53;6.27;;;3.07;;
11960;SDS011;6040;49.358;11.140;2023-05-17T09:05:20;6.83;;;3.37;;
11960;SDS011;6040;49.358;11.140;2023-05-17T09:07:47;7.43;;;3.20;;
11960;SDS011;6040;49.358;11.140;2023-05-17T09:10:16;6.73;;;3.03;;
11960;SDS011;6040;49.358;11.140;2023-05-17T09:12:43;6.40;;;2.93;;
11960;SDS011;6040;49.358;11.140;2023-05-17T09:15:13;6.17;;;2.83;;
11960;SDS011;6040;49.358;11.140;2023-05-17T09:17:41;5.33;;;3.00;;
11960;SDS011;6040;49.358;11.140;2023-05-17T09:20:09;6.50;;;4.20;;
11960;SDS011;6040;49.358;11.140;2023-05-17T09:22:36;7.97;;;3.00;;
11960;SDS011;6040;49.358;11.140;2023-05-17T09:25:03;7.07;;;3.10;;
11960;SDS011;6040;49.358;11.140;2023-05-17T09:27:32;6.73;;;3.10;;
11960;SDS011;6040;49.358;11.140;2023-05-17T09:29:58;7.80;;;3.47;;
11960;SDS011;6040;49.358;11.140;2023-05-17T09:32:25;8.93;;;3.50;;
11960;SDS011;6040;49.358;11.140;2023-05-17T09:34:52;7.33;;;3.53;;
11960;SDS011;6040;49.358;11.140;2023-05-17T09:37:22;5.07;;;3.23;;
11960;SDS011;6040;49.358;11.140;2023-05-17T09:39:50;9.07;;;3.27;;
11960;SDS011;6040;49.358;11.140;2023-05-17T09:42:17;4.97;;;3.20;;
11960;SDS011;6040;49.358;11.140;2023-05-17T09:44:45;8.80;;;3.27;;
11960;SDS011;6040;49.358;11.140;2023-05-17T09:47:20;5.67;;;3.10;;
11960;SDS011;6040;49.358;11.140;2023-05-17T09:49:48;7.23;;;4.00;;
11960;SDS011;6040;49.358;11.140;2023-05-17T09:52:16;4.63;;;2.87;;
11960;SDS011;6040;49.358;11.140;2023-05-17T09:54:50;6.13;;;2.80;;
11960;SDS011;6040;49.358;11.140;2023-05-17T09:57:17;6.13;;;3.47;;
11960;SDS011;6040;49.358;11.140;2023-05-17T09:59:46;4.93;;;2.83;;
11960;SDS011;6040;49.358;11.140;2023-05-17T10:02:16;6.67;;;3.03;;
11960;SDS011;6040;49.358;11.140;2023-05-17T10:04:47;4.60;;;3.03;;
11960;SDS011;6040;49.358;11.140;2023-05-17T10:07:16;5.17;;;3.20;;
11960;SDS011;6040;49.358;11.140;2023-05-17T10:09:45;6.40;;;3.23;;
11960;SDS011;6040;49.358;11.140;2023-05-17T10:12:15;7.73;;;3.20;;
11960;SDS011;6040;49.358;11.140;2023-05-17T10:14:43;4.37;;;3.27;;
11960;SDS011;6040;49.358;11.140;2023-05-17T10:17:12;6.10;;;3.30;;
11960;SDS011;6040;49.358;11.140;2023-05-17T10:19:40;6.90;;;3.07;;
11960;SDS011;6040;49.358;11.140;2023-05-17T10:22:08;7.73;;;3.00;;
11960;SDS011;6040;49.358;11.140;2023-05-17T10:24:35;6.90;;;3.20;;
11960;SDS011;6040;49.358;11.140;2023-05-17T10:27:02;5.53;;;3.10;;
11960;SDS011;6040;49.358;11.140;2023-05-17T10:29:31;6.17;;;3.43;;
11960;SDS011;6040;49.358;11.140;2023-05-17T10:32:02;5.63;;;2.90;;
11960;SDS011;6040;49.358;11.140;2023-05-17T10:34:31;6.73;;;3.07;;
11960;SDS011;6040;49.358;11.140;2023-05-17T10:36:59;7.37;;;3.03;;
11960;SDS011;6040;49.358;11.140;2023-05-17T10:39:28;7.47;;;3.37;;
11960;SDS011;6040;49.358;11.140;2023-05-17T10:41:58;6.27;;;3.20;;
11960;SDS011;6040;49.358;11.140;2023-05-17T10:44:29;6.20;;;3.07;;
11960;SDS011;6040;49.358;11.140;2023-05-17T10:46:58;4.83;;;2.83;;
11960;SDS011;6040;49.358;11.140;2023-05-17T10:49:28;10.03;;;3.20;;
11960;SDS011;6040;49.358;11.140;2023-05-17T10:51:56;5.43;;;2.80;;
11960;SDS011;6040;49.358;11.140;2023-05-17T10:54:32;4.43;;;2.40;;
11960;SDS011;6040;49.358;11.140;2023-05-17T10:57:00;3.93;;;2.73;;
11960;SDS011;6040;49.358;11.140;2023-05-17T10:59:30;5.77;;;2.77;;
11960;SDS011;6040;49.358;11.140;2023-05-17T11:01:58;3.97;;;2.60;;
11960;SDS011;6040;49.358;11.140;2023-05-17T11:04:32;4.27;;;2.93;;
11960;SDS011;6040;49.358;11.140;2023-05-17T11:09:49;6.30;;;2.60;;
11960;SDS011;6040;49.358;11.140;2023-05-17T11:12:26;4.43;;;2.80;;
11960;SDS011;6040;49.358;11.140;2023-05-17T11:14:55;4.53;;;3.00;;
11960;SDS011;6040;49.358;11.140;2023-05-17T11:17:23;4.73;;;2.90;;
11960;SDS011;6040;49.358;11.140;2023-05-17T11:19:56;4.90;;;2.70;;
11960;SDS011;6040;49.358;11.140;2023-05-17T11:22:27;7.23;;;3.60;;
11960;SDS011;6040;49.358;11.140;2023-05-17T11:25:00;4.17;;;2.67;;
11960;SDS011;6040;49.358;11.140;2023-05-17T11:27:34;3.87;;;2.60;;
11960;SDS011;6040;49.358;11.140;2023-05-17T11:30:14;6.00;;;2.70;;
11960;SDS011;6040;49.358;11.140;2023-05-17T11:32:45;4.13;;;2.77;;
11960;SDS011;6040;49.358;11.140;2023-05-17T11:35:15;4.23;;;2.63;;
11960;SDS011;6040;49.358;11.140;2023-05-17T11:37:43;3.63;;;2.43;;
11960;SDS011;6040;49.358;11.140;2023-05-17T11:40:11;5.87;;;2.80;;
11960;SDS011;6040;49.358;11.140;2023-05-17T11:42:39;6.07;;;2.90;;
11960;SDS011;6040;49.358;11.140;2023-05-17T11:45:06;5.50;;;3.00;;
11960;SDS011;6040;49.358;11.140;2023-05-17T11:47:37;3.70;;;2.60;;
11960;SDS011;6040;49.358;11.140;2023-05-17T11:50:06;4.70;;;2.87;;
11960;SDS011;6040;49.358;11.140;2023-05-17T11:52:38;7.40;;;3.13;;
11960;SDS011;6040;49.358;11.140;2023-05-17T11:55:05;4.67;;;2.70;;
11960;SDS011;6040;49.358;11.140;2023-05-17T11:57:33;5.73;;;3.07;;
11960;SDS011;6040;49.358;11.140;2023-05-17T12:00:04;4.60;;;2.70;;
11960;SDS011;6040;49.358;11.140;2023-05-17T12:02:32;6.13;;;2.93;;
11960;SDS011;6040;49.358;11.140;2023-05-17T12:04:59;5.00;;;2.63;;
11960;SDS011;6040;49.358;11.140;2023-05-17T12:07:26;7.77;;;2.70;;
11960;SDS011;6040;49.358;11.140;2023-05-17T12:09:55;4.47;;;2.80;;
11960;SDS011;6040;49.358;11.140;2023-05-17T12:12:21;4.20;;;2.60;;
11960;SDS011;6040;49.358;11.140;2023-05-17T12:14:48;5.43;;;2.40;;
11960;SDS011;6040;49.358;11.140;2023-05-17T12:17:20;7.00;;;2.87;;
11960;SDS011;6040;49.358;11.140;2023-05-17T12:19:53;3.93;;;2.50;;
11960;SDS011;6040;49.358;11.140;2023-05-17T12:22:20;3.63;;;2.60;;
11960;SDS011;6040;49.358;11.140;2023-05-17T12:24:47;8.53;;;2.87;;
11960;SDS011;6040;49.358;11.140;2023-05-17T12:27:17;5.77;;;3.03;;
11960;SDS011;6040;49.358;11.140;2023-05-17T12:29:50;5.07;;;2.60;;
11960;SDS011;6040;49.358;11.140;2023-05-17T12:32:17;5.03;;;2.70;;
11960;SDS011;6040;49.358;11.140;2023-05-17T12:34:45;5.00;;;2.70;;
11960;SDS011;6040;49.358;11.140;2023-05-17T12:37:13;3.87;;;2.40;;
11960;SDS011;6040;49.358;11.140;2023-05-17T12:39:42;5.63;;;2.87;;
11960;SDS011;6040;49.358;11.140;2023-05-17T12:42:09;5.67;;;2.70;;
11960;SDS011;6040;49.358;11.140;2023-05-17T12:44:38;4.57;;;2.50;;
11960;SDS011;6040;49.358;11.140;2023-05-17T12:47:05;5.63;;;3.00;;
11960;SDS011;6040;49.358;11.140;2023-05-17T12:49:36;5.10;;;2.73;;
11960;SDS011;6040;49.358;11.140;2023-05-17T12:52:04;5.60;;;2.90;;
11960;SDS011;6040;49.358;11.140;2023-05-17T12:54:31;5.50;;;2.70;;
11960;SDS011;6040;49.358;11.140;2023-05-17T12:57:07;5.47;;;2.63;;
11960;SDS011;6040;49.358;11.140;2023-05-17T12:59:45;7.33;;;2.93;;
11960;SDS011;6040;49.358;11.140;2023-05-17T13:02:13;5.60;;;2.83;;
11960;SDS011;6040;49.358;11.140;2023-05-17T13:04:40;5.60;;;2.63;;
11960;SDS011;6040;49.358;11.140;2023-05-17T13:07:07;6.60;;;3.30;;
11960;SDS011;6040;49.358;11.140;2023-05-17T13:09:36;5.10;;;2.80;;
11960;SDS011;6040;49.358;11.140;2023-05-17T13:12:17;6.53;;;2.60;;
11960;SDS011;6040;49.358;11.140;2023-05-17T13:14:47;5.53;;;2.97;;
11960;SDS011;6040;49.358;11.140;2023-05-17T13:17:16;6.90;;;2.80;;
11960;SDS011;6040;49.358;11.140;2023-05-17T13:19:44;6.23;;;3.00;;
11960;SDS011;6040;49.358;11.140;2023-05-17T13:22:11;4.03;;;2.60;;
11960;SDS011;6040;49.358;11.140;2023-05-17T13:24:39;6.40;;;3.33;;
11960;SDS011;6040;49.358;11.140;2023-05-17T13:27:06;6.20;;;2.77;;
11960;SDS011;6040;49.358;11.140;2023-05-17T13:29:35;4.73;;;2.87;;
11960;SDS011;6040;49.358;11.140;2023-05-17T13:32:05;3.97;;;2.93;;
11960;SDS011;6040;49.358;11.140;2023-05-17T13:34:34;7.80;;;3.10;;
11960;SDS011;6040;49.358;11.140;2023-05-17T13:37:01;4.07;;;2.40;;
11960;SDS011;6040;49.358;11.140;2023-05-17T13:39:28;5.80;;;3.00;;
11960;SDS011;6040;49.358;11.140;2023-05-17T13:41:54;4.97;;;2.90;;
11960;SDS011;6040;49.358;11.140;2023-05-17T13:44:21;7.63;;;3.10;;
11960;SDS011;6040;49.358;11.140;2023-05-17T13:46:48;7.07;;;3.30;;
11960;SDS011;6040;49.358;11.140;2023-05-17T13:49:16;10.13;;;3.27;;
11960;SDS011;6040;49.358;11.140;2023-05-17T13:51:43;7.27;;;3.30;;
11960;SDS011;6040;49.358;11.140;2023-05-17T13:54:10;6.40;;;3.20;;
11960;SDS011;6040;49.358;11.140;2023-05-17T13:56:37;6.67;;;2.90;;
11960;SDS011;6040;49.358;11.140;2023-05-17T13:59:04;4.67;;;2.93;;
11960;SDS011;6040;49.358;11.140;2023-05-17T14:01:31;5.87;;;3.00;;
11960;SDS011;6040;49.358;11.140;2023-05-17T14:03:57;4.90;;;2.73;;
11960;SDS011;6040;49.358;11.140;2023-05-17T14:06:26;3.77;;;2.73;;
11960;SDS011;6040;49.358;11.140;2023-05-17T14:08:53;7.53;;;3.20;;
11960;SDS011;6040;49.358;11.140;2023-05-17T14:11:21;6.97;;;2.77;;
11960;SDS011;6040;49.358;11.140;2023-05-17T14:13:48;4.30;;;2.63;;
11960;SDS011;6040;49.358;11.140;2023-05-17T14:16:15;5.20;;;2.90;;
11960;SDS011;6040;49.358;11.140;2023-05-17T14:18:42;5.27;;;3.10;;
11960;SDS011;6040;49.358;11.140;2023-05-17T14:21:09;6.40;;;3.20;;
11960;SDS011;6040;49.358;11.140;2023-05-17T14:23:38;5.60;;;3.10;;
11960;SDS011;6040;49.358;11.140;2023-05-17T14:26:04;5.70;;;2.80;;
11960;SDS011;6040;49.358;11.140;2023-05-17T14:28:31;8.53;;;3.03;;
11960;SDS011;6040;49.358;11.140;2023-05-17T14:31:01;6.33;;;2.67;;
11960;SDS011;6040;49.358;11.140;2023-05-17T14:33:28;4.70;;;2.90;;
11960;SDS011;6040;49.358;11.140;2023-05-17T14:35:55;6.63;;;3.20;;
11960;SDS011;6040;49.358;11.140;2023-05-17T14:38:22;8.23;;;3.40;;
11960;SDS011;6040;49.358;11.140;2023-05-17T14:40:51;5.60;;;2.80;;
11960;SDS011;6040;49.358;11.140;2023-05-17T14:43:17;8.80;;;3.33;;
11960;SDS011;6040;49.358;11.140;2023-05-17T14:45:45;4.97;;;2.77;;
11960;SDS011;6040;49.358;11.140;2023-05-17T14:48:11;4.80;;;2.83;;
11960;SDS011;6040;49.358;11.140;2023-05-17T14:50:38;4.60;;;2.93;;
11960;SDS011;6040;49.358;11.140;2023-05-17T14:53:05;7.00;;;3.27;;
11960;SDS011;6040;49.358;11.140;2023-05-17T14:55:32;6.13;;;3.33;;